Time;durP1;ratioP1;P1;durP2;ratioP2;P2;SDS_P1;SDS_P2;PMS_P1;PMS_P2;Temp;Humidity;BMP_temperature;BMP_pressure;BME280_temperature;BME280_humidity;BME280_pressure;Samples;Min_cycle;Max_cycle;Signal;HPM_P1;HPM_P2
2022/01/23 00:00:36;;;;;;;4.93;4.60;;;;;;;-1.17;100.00;99859.41;5068861;28;20207;-62
2022/01/23 00:03:08;;;;;;;4.63;4.33;;;;;;;-1.15;100.00;99867.84;5069989;28;20211;-62
2022/01/23 00:05:38;;;;;;;5.00;4.70;;;;;;;-1.18;100.00;99867.75;5068164;28;20679;-62
2022/01/23 00:08:06;;;;;;;6.17;4.77;;;;;;;-1.15;100.00;99872.88;5069546;28;20200;-62
2022/01/23 00:10:34;;;;;;;5.00;4.53;;;;;;;-1.15;100.00;99875.38;5068347;28;20884;-63
2022/01/23 00:13:07;;;;;;;4.93;4.50;;;;;;;-1.19;100.00;99873.59;5068839;28;20196;-62
2022/01/23 00:18:20;;;;;;;4.87;4.47;;;;;;;-1.28;100.00;99873.38;5067518;28;20289;-63
2022/01/23 00:20:47;;;;;;;4.83;4.43;;;;;;;-1.16;100.00;99886.25;5068704;28;20197;-62
2022/01/23 00:23:28;;;;;;;4.97;4.67;;;;;;;-1.18;100.00;99892.91;5066577;28;20306;-62
2022/01/23 00:31:25;;;;;;;6.20;4.70;;;;;;;-1.36;98.20;99884.94;5067504;28;20230;-61
2022/01/23 00:33:54;;;;;;;4.90;4.43;;;;;;;-1.38;97.92;99906.66;5068390;28;20464;-62
2022/01/23 00:36:21;;;;;;;4.47;4.07;;;;;;;-1.58;99.24;99891.06;5067329;28;20337;-62
2022/01/23 00:38:50;;;;;;;3.40;3.30;;;;;;;-1.64;100.00;99915.19;5068289;28;20207;-62
2022/01/23 00:41:17;;;;;;;4.17;3.87;;;;;;;-1.76;100.00;99899.78;5068515;28;20193;-62
2022/01/23 00:43:45;;;;;;;5.03;4.67;;;;;;;-1.77;99.90;99919.03;5067970;28;20326;-62
2022/01/23 00:46:22;;;;;;;3.77;3.57;;;;;;;-1.83;99.56;99923.03;5068865;28;20196;-62
2022/01/23 00:49:13;;;;;;;4.20;4.00;;;;;;;-1.85;99.66;99920.50;5069694;28;20219;-62
2022/01/23 00:51:41;;;;;;;3.80;3.60;;;;;;;-1.89;99.04;99925.38;5064291;28;20296;-62
2022/01/23 00:54:11;;;;;;;4.10;3.80;;;;;;;-1.92;98.98;99927.81;5069985;28;20196;-63
2022/01/23 00:56:38;;;;;;;5.30;3.93;;;;;;;-1.94;99.15;99924.41;5069737;28;20204;-62
2022/01/23 00:59:06;;;;;;;4.37;4.03;;;;;;;-2.05;98.30;99915.72;5068619;28;20219;-62
2022/01/23 01:01:33;;;;;;;3.90;3.47;;;;;;;-2.04;98.39;99922.44;5068062;28;20295;-62
2022/01/23 01:04:00;;;;;;;4.63;4.17;;;;;;;-2.12;98.07;99925.59;5068845;28;20199;-61
2022/01/23 01:06:27;;;;;;;4.80;4.40;;;;;;;-2.14;98.02;99932.25;5068850;28;20196;-61
2022/01/23 01:09:01;;;;;;;4.03;3.83;;;;;;;-2.27;97.58;99915.13;5069149;28;20706;-62
2022/01/23 01:14:25;;;;;;;4.57;4.20;;;;;;;-2.20;96.72;99932.03;5055487;28;20192;-62
2022/01/23 01:16:59;;;;;;;3.93;3.73;;;;;;;-2.23;96.73;99936.97;5068858;28;20207;-62
2022/01/23 01:30:34;;;;;;;3.37;3.17;;;;;;;-2.41;96.10;99936.44;5068679;28;20203;-62
2022/01/23 01:33:11;;;;;;;4.57;4.27;;;;;;;-2.39;95.32;99939.84;5066671;28;20203;-62
2022/01/23 01:35:43;;;;;;;3.77;3.40;;;;;;;-2.32;94.60;99941.72;5067244;28;20202;-62
2022/01/23 01:38:10;;;;;;;4.40;4.20;;;;;;;-2.30;93.96;99930.09;5067964;28;20679;-62
2022/01/23 01:40:37;;;;;;;3.27;3.10;;;;;;;-2.28;93.70;99932.63;5071707;28;20227;-62
2022/01/23 01:43:06;;;;;;;4.37;3.60;;;;;;;-2.25;93.99;99932.72;5072890;28;20203;-62
2022/01/23 01:45:34;;;;;;;4.30;3.90;;;;;;;-2.26;94.19;99926.84;5070474;28;20327;-61
2022/01/23 01:48:03;;;;;;;5.20;3.50;;;;;;;-2.22;94.53;99942.84;5073072;28;20196;-62
2022/01/23 01:50:31;;;;;;;4.00;3.80;;;;;;;-2.21;94.81;99942.06;5072518;28;20270;-61
2022/01/23 01:52:58;;;;;;;4.60;4.30;;;;;;;-2.19;94.24;99938.78;5071215;28;20284;-62
2022/01/23 01:55:29;;;;;;;4.33;4.03;;;;;;;-2.18;94.26;99949.69;5071864;28;20204;-61
2022/01/23 01:58:01;;;;;;;4.20;4.00;;;;;;;-2.17;93.87;99946.38;5072686;28;20253;-62
2022/01/23 02:00:44;;;;;;;5.00;4.70;;;;;;;-2.14;93.86;99956.50;5071825;28;20599;-62
2022/01/23 02:03:37;;;;;;;3.97;3.67;;;;;;;-2.15;93.55;99955.66;5072975;28;20671;-61
2022/01/23 02:08:50;;;;;;;3.20;3.07;;;;;;;-2.18;93.68;99953.03;5070876;28;20809;-62
2022/01/23 02:11:22;;;;;;;3.83;3.60;;;;;;;-2.20;93.83;99951.31;5071272;28;20250;-61
2022/01/23 02:13:54;;;;;;;4.37;4.17;;;;;;;-2.21;93.84;99954.63;5072544;28;20284;-61
2022/01/23 02:17:01;;;;;;;3.80;3.60;;;;;;;-2.27;94.16;99950.28;5071650;28;20612;-61
2022/01/23 02:22:44;;;;;;;4.87;4.30;;;;;;;-2.30;94.68;99940.13;5071363;28;20207;-61
2022/01/23 02:25:41;;;;;;;6.90;5.57;;;;;;;-2.31;94.52;99938.44;5071609;28;20196;-61
2022/01/23 02:52:55;;;;;;;7.00;5.30;;;;;;;-2.39;93.91;99942.34;5071798;28;20245;-61
2022/01/23 02:55:26;;;;;;;5.60;5.20;;;;;;;-2.50;94.41;99946.22;5070191;28;20207;-61
2022/01/23 02:57:56;;;;;;;5.57;4.77;;;;;;;-2.47;94.22;99955.50;5070783;28;20219;-61
2022/01/23 03:00:30;;;;;;;4.80;4.50;;;;;;;-2.45;94.03;99954.72;5071158;28;20612;-61
2022/01/23 03:03:04;;;;;;;5.10;4.80;;;;;;;-2.51;94.02;99954.53;5071795;28;20258;-61
2022/01/23 03:05:40;;;;;;;9.37;4.63;;;;;;;-2.49;93.76;99957.97;5069874;28;20698;-61
2022/01/23 03:08:22;;;;;;;13.70;4.80;;;;;;;-2.45;93.72;99962.25;5071066;28;20631;-62
2022/01/23 03:11:01;;;;;;;5.20;4.10;;;;;;;-2.53;93.18;99953.66;5071636;28;20270;-61
2022/01/23 03:13:46;;;;;;;6.50;3.80;;;;;;;-2.44;93.05;99970.63;5070904;28;20196;-61
2022/01/23 03:24:41;;;;;;;4.37;3.87;;;;;;;-2.51;93.36;99972.13;5070904;28;20294;-61
2022/01/23 03:29:56;;;;;;;4.17;3.77;;;;;;;-2.54;93.60;99969.50;5062054;28;20192;-61
2022/01/23 03:32:30;;;;;;;4.17;3.87;;;;;;;-2.51;93.58;99971.25;5068244;28;20204;-61
2022/01/23 03:34:57;;;;;;;3.87;3.57;;;;;;;-2.48;93.02;99964.69;5068731;28;20612;-61
2022/01/23 03:37:24;;;;;;;4.70;4.07;;;;;;;-2.44;92.75;99975.66;5070379;28;20205;-61
2022/01/23 03:39:51;;;;;;;4.50;4.30;;;;;;;-2.45;92.81;99977.31;5070843;28;20354;-61
2022/01/23 03:42:19;;;;;;;3.43;3.13;;;;;;;-2.41;92.65;99981.63;5070369;28;20643;-61
2022/01/23 03:45:03;;;;;;;4.37;4.07;;;;;;;-2.43;92.46;99978.22;5065676;28;20704;-61
2022/01/23 03:47:37;;;;;;;4.37;4.07;;;;;;;-2.42;92.44;99984.94;5071470;28;20723;-61
2022/01/23 03:50:04;;;;;;;3.97;3.67;;;;;;;-2.48;92.66;99982.25;5069999;28;20194;-62
2022/01/23 03:52:31;;;;;;;4.77;4.47;;;;;;;-2.50;92.23;99972.97;5067517;28;20310;-61
2022/01/23 03:54:58;;;;;;;4.13;3.83;;;;;;;-2.46;91.91;99982.31;5069159;28;20262;-61
2022/01/23 03:57:26;;;;;;;4.87;4.47;;;;;;;-2.45;91.83;99986.50;5068887;28;20652;-61
2022/01/23 03:59:53;;;;;;;5.07;4.67;;;;;;;-2.44;91.96;99988.22;5069503;28;20687;-62
2022/01/23 04:02:20;;;;;;;4.90;4.50;;;;;;;-2.43;92.39;99988.28;5068645;28;20287;-61
2022/01/23 04:04:47;;;;;;;4.77;4.47;;;;;;;-2.49;92.27;99990.59;5070164;28;20196;-62
2022/01/23 04:07:18;;;;;;;5.03;4.63;;;;;;;-2.48;92.39;99993.94;5069043;28;20726;-62
2022/01/23 04:09:45;;;;;;;4.43;4.13;;;;;;;-2.51;92.29;99989.69;5071011;28;20196;-61
2022/01/23 04:12:26;;;;;;;5.37;4.43;;;;;;;-2.54;92.23;99992.09;5070607;28;20672;-61
2022/01/23 04:15:02;;;;;;;4.90;4.40;;;;;;;-2.71;92.73;99979.00;5070379;28;20291;-62
2022/01/23 04:33:58;;;;;;;3.50;3.20;;;;;;;-2.53;92.78;99991.31;5068207;28;20250;-61
2022/01/23 05:01:24;;;;;;;8.33;7.33;;;;;;;-2.78;95.64;100016.44;5066906;28;20254;-61
2022/01/23 05:06:43;;;;;;;5.43;5.13;;;;;;;-2.81;97.51;100033.88;5068752;28;20231;-62
2022/01/23 05:09:11;;;;;;;4.63;4.30;;;;;;;-2.79;98.16;100028.13;5067920;28;20196;-61
2022/01/23 05:11:43;;;;;;;4.13;3.93;;;;;;;-2.82;98.09;100017.13;5068902;28;20200;-61
2022/01/23 05:14:10;;;;;;;5.20;4.70;;;;;;;-2.68;97.82;100035.97;5069524;28;20770;-61
2022/01/23 05:16:37;;;;;;;5.73;5.40;;;;;;;-2.70;97.87;100045.13;5069250;28;20305;-61
2022/01/23 05:19:05;;;;;;;4.80;4.37;;;;;;;-2.69;97.74;100057.72;5068788;28;20208;-62
2022/01/23 05:22:02;;;;;;;4.30;3.93;;;;;;;-2.68;97.66;100053.53;5068197;28;20767;-61
2022/01/23 05:24:34;;;;;;;7.93;3.90;;;;;;;-2.60;96.82;100054.66;5068856;28;20212;-61
2022/01/23 05:27:02;;;;;;;7.53;4.33;;;;;;;-2.51;95.96;100064.97;5068766;28;20318;-62
2022/01/23 05:29:29;;;;;;;9.23;4.93;;;;;;;-2.49;95.56;100057.50;5068873;28;20210;-61
2022/01/23 05:31:56;;;;;;;3.87;3.67;;;;;;;-2.41;94.82;100066.97;5068786;28;20199;-61
2022/01/23 05:34:25;;;;;;;3.73;3.53;;;;;;;-2.45;94.80;100049.25;5069489;28;20580;-61
2022/01/23 05:36:53;;;;;;;3.93;3.50;;;;;;;-2.33;94.73;100055.53;5069773;28;20618;-61
2022/01/23 05:39:23;;;;;;;3.50;3.30;;;;;;;-2.29;94.25;100064.84;5067279;28;20196;-61
2022/01/23 05:41:54;;;;;;;4.53;3.37;;;;;;;-2.25;93.92;100064.16;5069344;28;20200;-61
2022/01/23 05:44:21;;;;;;;3.77;3.57;;;;;;;-2.23;93.45;100056.69;5067290;28;20234;-61
2022/01/23 05:46:48;;;;;;;3.83;3.60;;;;;;;-2.07;92.76;100063.03;5066359;28;20228;-61
2022/01/23 05:49:15;;;;;;;4.00;3.70;;;;;;;-2.07;92.54;100063.03;5067709;28;20754;-61
2022/01/23 05:51:44;;;;;;;3.53;3.33;;;;;;;-2.07;92.62;100066.41;5067934;28;20208;-62
2022/01/23 05:54:11;;;;;;;4.90;3.57;;;;;;;-2.00;92.59;100082.50;5068042;28;20283;-61
2022/01/23 05:56:38;;;;;;;3.57;3.37;;;;;;;-1.94;92.38;100087.72;5068252;28;20571;-61
2022/01/23 05:59:05;;;;;;;3.57;3.37;;;;;;;-1.92;92.67;100086.94;5068632;28;20291;-62
2022/01/23 06:01:31;;;;;;;3.90;3.43;;;;;;;-2.02;92.40;100064.00;5067575;28;20216;-61
2022/01/23 06:03:58;;;;;;;5.27;4.23;;;;;;;-1.91;92.30;100080.28;5068617;28;20196;-61
2022/01/23 06:06:25;;;;;;;3.87;3.63;;;;;;;-1.81;92.12;100087.28;5067868;28;20200;-61
2022/01/23 06:08:54;;;;;;;5.37;4.17;;;;;;;-1.81;91.80;100082.25;5068844;28;20287;-61
2022/01/23 06:11:20;;;;;;;3.83;3.63;;;;;;;-1.78;91.54;100092.41;5068330;28;20207;-61
2022/01/23 06:13:47;;;;;;;4.67;4.23;;;;;;;-1.75;91.63;100092.50;5068154;28;20730;-61
2022/01/23 06:16:14;;;;;;;4.57;4.17;;;;;;;-1.74;91.13;100090.00;5066753;28;20200;-61
2022/01/23 06:18:43;;;;;;;4.20;3.90;;;;;;;-1.72;91.17;100097.59;5069071;28;20200;-61
2022/01/23 06:21:12;;;;;;;4.40;4.10;;;;;;;-1.75;91.04;100095.84;5068429;28;20216;-61
2022/01/23 06:23:39;;;;;;;4.23;3.93;;;;;;;-1.73;91.14;100099.25;5068712;28;20192;-61
2022/01/23 06:26:07;;;;;;;4.17;3.87;;;;;;;-1.71;91.15;100099.28;5069487;28;20674;-62
2022/01/23 06:28:43;;;;;;;4.80;3.53;;;;;;;-1.72;91.38;100102.63;5072451;28;20254;-61
2022/01/23 06:31:10;;;;;;;4.90;4.50;;;;;;;-1.72;91.57;100102.63;5071770;28;20188;-61
2022/01/23 06:33:37;;;;;;;4.77;4.00;;;;;;;-1.96;90.81;100056.66;5072113;28;20652;-62
2022/01/23 06:36:05;;;;;;;4.30;3.90;;;;;;;-1.65;91.12;100110.38;5071428;28;20245;-61
2022/01/23 06:38:32;;;;;;;4.23;3.93;;;;;;;-1.62;91.74;100114.66;5071085;28;20200;-61
2022/01/23 06:40:59;;;;;;;3.63;3.43;;;;;;;-1.63;92.11;100108.78;5071143;28;20223;-61
2022/01/23 06:43:27;;;;;;;3.57;3.30;;;;;;;-1.63;92.62;100107.91;5070084;28;20219;-61
2022/01/23 06:45:54;;;;;;;3.50;3.30;;;;;;;-1.66;92.36;100111.22;5071866;28;20296;-61
2022/01/23 06:48:21;;;;;;;3.47;3.27;;;;;;;-1.66;92.80;100107.84;5070098;28;20215;-61
2022/01/23 06:50:49;;;;;;;4.30;3.87;;;;;;;-1.73;92.94;100096.75;5071741;28;20286;-62
2022/01/23 06:53:16;;;;;;;4.73;3.10;;;;;;;-1.70;92.89;100106.03;5070885;28;20287;-62
2022/01/23 06:55:43;;;;;;;4.07;3.83;;;;;;;-1.67;92.36;100116.16;5071761;28;20230;-61
2022/01/23 06:58:10;;;;;;;4.10;3.77;;;;;;;-1.69;91.84;100112.78;5072305;28;20716;-61
2022/01/23 07:00:39;;;;;;;4.17;3.87;;;;;;;-1.68;91.85;100124.53;5068282;28;20303;-61
2022/01/23 07:03:06;;;;;;;3.97;3.77;;;;;;;-1.64;91.18;100121.28;5071712;28;20300;-61
2022/01/23 07:05:33;;;;;;;3.93;3.63;;;;;;;-1.63;91.19;100117.97;5070226;28;20295;-62
2022/01/23 07:08:00;;;;;;;5.17;4.77;;;;;;;-1.62;91.34;100122.22;5071537;28;20735;-61
2022/01/23 07:10:26;;;;;;;4.63;4.43;;;;;;;-1.59;91.10;100114.75;5070387;28;20283;-61
2022/01/23 07:12:53;;;;;;;4.83;4.47;;;;;;;-1.60;91.15;100123.09;5071078;28;20283;-62
2022/01/23 07:15:21;;;;;;;4.50;4.20;;;;;;;-1.57;91.27;100123.19;5069859;28;20319;-61
2022/01/23 07:17:49;;;;;;;6.07;4.23;;;;;;;-1.57;90.73;100120.66;5071830;28;20671;-61
2022/01/23 07:20:16;;;;;;;4.23;3.83;;;;;;;-1.53;90.39;100119.97;5070090;28;20223;-61
2022/01/23 07:22:43;;;;;;;6.30;5.53;;;;;;;-1.49;89.96;100116.72;5068051;28;20744;-61
2022/01/23 07:25:10;;;;;;;6.37;5.77;;;;;;;-1.44;89.24;100102.63;5068594;28;20204;-62
2022/01/23 07:27:42;;;;;;;6.30;5.77;;;;;;;-1.44;88.91;100105.13;5068121;28;20655;-61
2022/01/23 07:30:22;;;;;;;6.70;5.23;;;;;;;-1.37;88.48;100107.03;5069184;28;20232;-61
2022/01/23 07:32:50;;;;;;;5.07;4.67;;;;;;;-1.37;88.51;100109.53;5067851;28;20698;-62
2022/01/23 07:35:17;;;;;;;6.00;5.50;;;;;;;-1.34;88.89;100107.09;5068582;28;20200;-61
2022/01/23 07:37:44;;;;;;;5.50;5.00;;;;;;;-1.26;88.68;100105.63;5069111;28;20208;-61
2022/01/23 07:40:12;;;;;;;4.70;4.40;;;;;;;-1.17;88.92;100100.91;5065386;28;20675;-62
2022/01/23 07:42:39;;;;;;;6.83;6.07;;;;;;;-1.08;88.55;100103.66;5065243;28;20205;-61
2022/01/23 07:45:07;;;;;;;4.23;3.83;;;;;;;-0.96;88.57;100094.72;5066220;28;20251;-61
2022/01/23 07:47:35;;;;;;;5.63;5.23;;;;;;;-0.90;88.75;100093.22;5068415;28;20294;-61
2022/01/23 07:50:06;;;;;;;5.87;5.47;;;;;;;-0.85;88.94;100091.69;5067637;28;20215;-62
2022/01/23 07:52:35;;;;;;;5.90;5.50;;;;;;;-0.83;88.20;100081.66;5065263;28;20303;-62
2022/01/23 07:55:04;;;;;;;6.23;4.67;;;;;;;-0.72;87.76;100096.25;5068228;28;20210;-61
2022/01/23 07:57:30;;;;;;;4.83;4.33;;;;;;;-0.64;86.43;100099.78;5066648;28;20631;-62
2022/01/23 07:59:58;;;;;;;5.33;4.93;;;;;;;-0.56;85.19;100103.38;5068322;28;20204;-62
2022/01/23 08:02:24;;;;;;;11.37;4.97;;;;;;;-0.46;84.22;100104.44;5069464;28;20200;-62
2022/01/23 08:04:51;;;;;;;5.67;4.13;;;;;;;-0.44;84.32;100109.50;5070168;28;20303;-61
2022/01/23 08:07:30;;;;;;;4.27;3.90;;;;;;;-0.42;84.02;100106.19;5067679;28;20203;-61
2022/01/23 08:09:58;;;;;;;3.73;3.53;;;;;;;-0.31;82.46;100112.38;5066909;28;20254;-62
2022/01/23 08:12:26;;;;;;;5.13;4.73;;;;;;;-0.65;82.40;100056.97;5065343;28;20678;-62
2022/01/23 08:14:53;;;;;;;3.17;2.93;;;;;;;-0.28;82.10;100109.06;5069611;28;20283;-61
2022/01/23 08:17:24;;;;;;;7.40;5.90;;;;;;;-0.17;81.78;100103.50;5065073;28;20208;-62
2022/01/23 08:19:52;;;;;;;4.17;3.87;;;;;;;-0.08;80.89;100098.66;5068933;28;20207;-61
2022/01/23 08:22:21;;;;;;;7.57;3.90;;;;;;;0.02;80.45;100098.88;5065551;28;20216;-63
2022/01/23 08:24:49;;;;;;;4.27;3.93;;;;;;;0.24;78.68;100096.00;5069338;28;20295;-62
2022/01/23 08:27:16;;;;;;;4.17;3.97;;;;;;;0.22;78.65;100072.44;5067100;28;20339;-62
2022/01/23 08:29:43;;;;;;;3.97;3.67;;;;;;;0.36;77.94;100101.31;5067867;28;20291;-63
2022/01/23 08:32:10;;;;;;;4.60;4.27;;;;;;;0.29;77.23;100054.94;5066982;28;20207;-62
2022/01/23 08:34:38;;;;;;;5.00;4.70;;;;;;;0.54;77.67;100086.59;5067235;28;20218;-63
2022/01/23 08:37:06;;;;;;;6.97;4.30;;;;;;;0.73;77.63;100092.84;5067320;28;20212;-63
2022/01/23 08:39:36;;;;;;;4.27;3.97;;;;;;;1.00;75.82;100095.94;5066162;28;20200;-63
2022/01/23 08:42:04;;;;;;;4.37;3.87;;;;;;;1.16;75.92;100089.50;5064713;28;20251;-63
2022/01/23 08:44:31;;;;;;;4.47;4.03;;;;;;;1.18;74.75;100092.88;5066237;28;20608;-63
2022/01/23 08:46:59;;;;;;;3.63;3.40;;;;;;;1.18;73.89;100090.38;5069369;28;20196;-63
2022/01/23 08:49:27;;;;;;;6.50;2.90;;;;;;;1.16;71.87;100094.53;5068939;28;20568;-63
2022/01/23 08:51:55;;;;;;;2.47;2.37;;;;;;;1.14;71.29;100086.94;5065630;28;20198;-63
2022/01/23 08:54:23;;;;;;;3.37;3.20;;;;;;;1.05;71.22;100087.63;5069243;28;20248;-63
2022/01/23 08:56:51;;;;;;;3.63;3.33;;;;;;;0.95;72.58;100070.59;5067194;28;20640;-62
2022/01/23 08:59:18;;;;;;;4.00;3.80;;;;;;;1.26;72.47;100086.31;5068217;28;20274;-63
2022/01/23 09:01:45;;;;;;;3.63;3.33;;;;;;;1.34;71.67;100085.63;5068740;28;20688;-63
2022/01/23 09:04:15;;;;;;;3.40;3.20;;;;;;;1.31;70.92;100085.56;5068721;28;20226;-63
2022/01/23 09:06:43;;;;;;;4.60;3.50;;;;;;;1.25;70.85;100067.78;5066450;28;20561;-63
2022/01/23 09:09:15;;;;;;;3.80;3.50;;;;;;;1.17;71.42;100076.03;5065421;28;20265;-63
2022/01/23 09:11:55;;;;;;;3.07;2.90;;;;;;;1.11;72.59;100065.81;5068282;28;20208;-63
2022/01/23 09:14:23;;;;;;;3.80;3.40;;;;;;;1.20;71.08;100073.56;5065606;28;20586;-63
2022/01/23 09:16:52;;;;;;;3.53;3.23;;;;;;;1.21;71.89;100068.53;5065491;28;20663;-64
2022/01/23 09:19:20;;;;;;;3.17;2.97;;;;;;;1.22;71.34;100075.31;5066071;28;20714;-64
2022/01/23 09:21:49;;;;;;;2.73;2.63;;;;;;;1.18;70.65;100072.69;5068724;28;20220;-64
2022/01/23 09:24:16;;;;;;;3.63;3.30;;;;;;;1.13;69.92;100069.25;5069411;28;20204;-63
2022/01/23 09:26:45;;;;;;;5.23;3.07;;;;;;;1.03;70.27;100064.00;5069892;28;20211;-63
2022/01/23 09:29:17;;;;;;;3.60;3.40;;;;;;;1.05;70.97;100062.38;5069439;28;20196;-64
2022/01/23 09:31:48;;;;;;;3.17;2.97;;;;;;;1.03;70.17;100058.13;5066226;28;20199;-64
2022/01/23 09:34:16;;;;;;;3.73;3.53;;;;;;;1.00;70.23;100048.78;5062299;28;20204;-63
2022/01/23 09:36:45;;;;;;;5.13;3.38;;;;;;;1.00;70.02;100045.44;5065459;28;20508;-62
2022/01/23 09:39:15;;;;;;;3.20;2.87;;;;;;;1.08;70.07;100038.00;5059744;28;20200;-62
2022/01/23 09:41:46;;;;;;;3.17;2.97;;;;;;;1.03;70.85;100038.75;5066616;28;20220;-61
2022/01/23 09:44:14;;;;;;;4.40;3.23;;;;;;;1.08;70.88;100030.41;5068984;28;20230;-61
2022/01/23 09:46:43;;;;;;;3.60;3.30;;;;;;;1.07;69.66;100038.84;5069712;28;20295;-62
2022/01/23 09:49:13;;;;;;;3.83;3.63;;;;;;;1.15;69.98;100040.66;5069578;28;20925;-62
2022/01/23 09:51:42;;;;;;;9.13;3.50;;;;;;;1.21;69.39;100023.09;5068348;28;20291;-62
2022/01/23 09:54:11;;;;;;;2.87;2.67;;;;;;;1.19;67.63;100034.00;5069776;28;20200;-62
2022/01/23 09:56:40;;;;;;;3.50;3.30;;;;;;;1.33;68.20;100025.81;5069626;28;20214;-62
2022/01/23 09:59:10;;;;;;;3.00;2.80;;;;;;;1.45;67.54;100023.50;5069749;28;20289;-63
2022/01/23 10:01:39;;;;;;;3.33;3.13;;;;;;;1.54;65.23;100015.22;5071790;28;20224;-62
2022/01/23 10:04:06;;;;;;;3.07;2.97;;;;;;;1.53;65.26;100016.03;5073940;28;20200;-62
2022/01/23 10:06:36;;;;;;;3.23;3.03;;;;;;;1.61;66.12;100009.44;5073706;28;20207;-64
2022/01/23 10:09:06;;;;;;;4.40;4.10;;;;;;;1.75;65.16;100007.09;5072611;28;20541;-67
2022/01/23 10:11:38;;;;;;;3.27;3.07;;;;;;;1.76;64.18;99999.56;5073835;28;20204;-67
2022/01/23 10:14:05;;;;;;;2.97;2.77;;;;;;;1.84;65.42;99999.66;5072379;28;20678;-67
2022/01/23 10:16:33;;;;;;;3.47;3.17;;;;;;;2.02;65.82;99993.19;5073466;28;20200;-67
2022/01/23 10:19:01;;;;;;;3.07;2.87;;;;;;;2.02;63.73;99977.16;5073510;28;20200;-67
2022/01/23 10:21:30;;;;;;;3.40;3.20;;;;;;;2.36;65.42;99988.56;5073728;28;20271;-67
2022/01/23 10:23:59;;;;;;;3.87;3.33;;;;;;;2.37;64.49;99985.19;5073985;28;20196;-68
2022/01/23 10:26:38;;;;;;;8.50;3.93;;;;;;;2.42;64.91;99959.13;5073872;28;20196;-67
2022/01/23 10:29:13;;;;;;;3.97;3.70;;;;;;;2.61;64.29;99982.94;5073395;28;20200;-67
2022/01/23 10:32:05;;;;;;;3.60;3.40;;;;;;;2.32;62.63;99961.53;5073773;28;20194;-68
2022/01/23 10:34:56;;;;;;;2.83;2.60;;;;;;;2.26;63.11;99981.69;5072987;28;20590;-67
2022/01/23 10:37:29;;;;;;;3.73;3.47;;;;;;;2.22;62.83;99985.00;5054595;28;20204;-68
2022/01/23 10:40:00;;;;;;;4.20;3.90;;;;;;;2.13;63.13;99967.19;5072921;28;20227;-68
2022/01/23 10:48:37;;;;;;;3.80;3.60;;;;;;;2.59;64.52;99982.06;5073822;28;20579;-68
2022/01/23 10:51:17;;;;;;;3.40;3.20;;;;;;;2.63;63.67;99993.94;5074033;28;20594;-68
2022/01/23 10:54:09;;;;;;;4.53;4.13;;;;;;;2.64;64.44;99981.31;5073381;28;20220;-68
2022/01/23 10:56:40;;;;;;;4.27;3.97;;;;;;;2.69;64.32;99986.41;5073534;28;20200;-67
2022/01/23 10:59:10;;;;;;;11.30;3.43;;;;;;;2.67;63.66;99984.69;5073492;28;20230;-68
2022/01/23 11:01:38;;;;;;;4.93;3.93;;;;;;;2.73;64.43;99979.69;5073321;28;20673;-67
2022/01/23 11:04:07;;;;;;;5.20;4.73;;;;;;;2.87;64.21;99981.53;5073569;28;20232;-68
2022/01/23 11:06:34;;;;;;;4.37;4.07;;;;;;;2.81;62.31;99971.31;5073144;28;20292;-67
2022/01/23 11:09:08;;;;;;;5.37;4.97;;;;;;;2.70;63.21;99972.91;5073441;28;20196;-68
2022/01/23 11:11:46;;;;;;;4.23;3.90;;;;;;;2.60;63.30;99969.44;5072744;28;20269;-68
2022/01/23 11:19:46;;;;;;;5.47;4.90;;;;;;;2.30;62.94;99963.16;5073025;28;20195;-68
2022/01/23 11:22:17;;;;;;;5.93;4.93;;;;;;;2.37;63.44;99959.88;5073264;28;20218;-68
2022/01/23 11:24:47;;;;;;;5.27;4.83;;;;;;;2.42;64.13;99958.28;5073062;28;20698;-67
2022/01/23 11:27:16;;;;;;;7.47;4.70;;;;;;;2.50;64.27;99961.72;5073011;28;20192;-68
2022/01/23 11:29:57;;;;;;;7.70;5.53;;;;;;;2.52;64.96;99953.31;5072500;28;20207;-68
2022/01/23 11:32:27;;;;;;;4.80;4.50;;;;;;;2.46;65.44;99944.81;5073088;28;20594;-68
2022/01/23 11:35:03;;;;;;;4.93;4.50;;;;;;;2.45;63.90;99973.50;5071912;28;20211;-68
2022/01/23 11:37:30;;;;;;;3.57;3.43;;;;;;;2.31;62.35;99959.81;5072366;28;20206;-68
2022/01/23 11:40:04;;;;;;;4.03;3.83;;;;;;;2.19;62.99;99959.69;5072821;28;20223;-68
2022/01/23 11:51:18;;;;;;;4.90;4.60;;;;;;;1.95;65.97;99950.94;5072525;28;20280;-69
2022/01/23 11:53:54;;;;;;;6.30;5.70;;;;;;;2.03;65.00;99953.59;5066615;28;20838;-64
2022/01/23 11:56:50;;;;;;;5.40;5.07;;;;;;;2.11;64.85;99947.78;5067823;28;20206;-64
2022/01/23 11:59:27;;;;;;;7.43;4.93;;;;;;;2.07;63.66;99951.09;5005179;28;20225;-65
2022/01/23 12:02:25;;;;;;;4.63;4.43;;;;;;;1.99;64.93;99959.41;5059324;28;20261;-64
2022/01/23 12:05:22;;;;;;;4.83;4.43;;;;;;;1.93;65.11;99966.94;5069258;28;20200;-64
2022/01/23 12:08:35;;;;;;;5.17;4.77;;;;;;;1.72;65.10;99943.88;5068918;28;20571;-64
2022/01/23 12:17:12;;;;;;;4.20;3.90;;;;;;;1.87;65.80;99955.06;5071236;28;20207;-62
2022/01/23 12:19:45;;;;;;;4.93;4.53;;;;;;;1.83;67.18;99963.44;5071237;28;20688;-64
2022/01/23 12:22:35;;;;;;;9.03;5.00;;;;;;;1.89;65.92;99966.03;5070312;28;20208;-62
2022/01/23 12:25:14;;;;;;;4.60;4.00;;;;;;;1.80;65.82;99960.00;5070783;28;20715;-64
2022/01/23 12:27:42;;;;;;;4.73;4.33;;;;;;;1.84;67.15;99962.56;5070475;28;20575;-63
2022/01/23 12:30:33;;;;;;;4.50;4.20;;;;;;;1.81;66.35;99956.66;5069485;28;20572;-68
2022/01/23 12:33:28;;;;;;;4.53;4.23;;;;;;;1.87;67.15;99957.59;5066503;28;20295;-67
2022/01/23 12:35:58;;;;;;;5.23;4.83;;;;;;;1.82;66.14;99959.19;5069510;28;20254;-67
2022/01/23 12:38:32;;;;;;;5.33;4.83;;;;;;;1.90;67.06;99950.03;5070372;28;20282;-67
2022/01/23 12:41:16;;;;;;;5.63;5.23;;;;;;;1.91;67.36;99948.34;5070203;28;20745;-68
2022/01/23 12:43:43;;;;;;;5.17;4.40;;;;;;;2.02;67.32;99950.19;5069913;28;20228;-65
2022/01/23 12:46:16;;;;;;;5.50;5.00;;;;;;;1.93;66.96;99955.16;5066160;28;20651;-65
2022/01/23 12:48:48;;;;;;;5.87;5.33;;;;;;;1.88;67.52;99956.75;5067532;28;20288;-64
2022/01/23 12:51:45;;;;;;;5.20;4.77;;;;;;;2.00;67.93;99954.38;5066678;28;20207;-65
2022/01/23 12:54:19;;;;;;;5.70;5.20;;;;;;;1.96;67.68;99950.13;5006335;28;20746;-64
2022/01/23 12:56:48;;;;;;;5.00;4.53;;;;;;;1.92;67.38;99961.03;5057693;28;20278;-63
2022/01/23 12:59:22;;;;;;;5.40;4.90;;;;;;;1.95;67.31;99950.94;5058882;28;20279;-64
2022/01/23 13:01:57;;;;;;;4.70;4.40;;;;;;;1.95;67.67;99945.88;5065793;28;20310;-64
2022/01/23 13:04:25;;;;;;;6.77;4.53;;;;;;;1.95;66.51;99950.09;5067966;28;20223;-64
2022/01/23 13:06:54;;;;;;;5.77;5.27;;;;;;;1.94;67.12;99946.72;5067273;28;20281;-63
2022/01/23 13:09:27;;;;;;;6.93;6.33;;;;;;;2.00;68.18;99949.31;5067648;28;20204;-64
2022/01/23 13:12:09;;;;;;;13.33;7.53;;;;;;;1.94;67.03;99953.47;5066917;28;20206;-63
2022/01/23 13:14:45;;;;;;;4.80;4.40;;;;;;;1.90;66.68;99949.19;5067201;28;20199;-64
2022/01/23 13:17:29;;;;;;;9.00;5.50;;;;;;;1.83;66.87;99949.94;5066463;28;20207;-64
2022/01/23 13:30:49;;;;;;;55.67;20.67;;;;;;;1.48;67.42;99951.97;5048739;28;20234;-65
2022/01/23 13:33:22;;;;;;;103.10;31.30;;;;;;;1.54;67.37;99964.69;5065492;28;20204;-64
2022/01/23 13:35:51;;;;;;;21.83;13.10;;;;;;;1.49;67.78;99963.75;5066149;28;20211;-64
2022/01/23 13:38:21;;;;;;;11.90;8.60;;;;;;;1.54;68.88;99964.69;5065454;28;20557;-64
2022/01/23 13:40:58;;;;;;;13.30;8.93;;;;;;;1.53;68.95;99970.56;5066567;28;20695;-65
2022/01/23 13:52:01;;;;;;;6.90;6.40;;;;;;;1.44;68.97;99978.00;5003818;28;20210;-65
2022/01/23 13:59:58;;;;;;;8.83;5.50;;;;;;;1.38;67.30;99975.38;5064881;28;20227;-65
2022/01/23 14:02:32;;;;;;;13.60;8.10;;;;;;;1.40;67.92;99971.19;5066440;28;20282;-64
2022/01/23 14:05:11;;;;;;;4.57;4.17;;;;;;;1.37;67.66;99983.78;5064282;28;20211;-65
2022/01/23 14:07:38;;;;;;;4.93;4.53;;;;;;;1.40;68.83;99983.81;5066295;28;20386;-64
2022/01/23 14:10:15;;;;;;;5.10;4.60;;;;;;;1.36;68.59;99982.06;5066326;28;20660;-65
2022/01/23 14:12:42;;;;;;;4.77;4.47;;;;;;;1.36;68.60;99980.41;5067526;28;20283;-64
2022/01/23 14:15:13;;;;;;;7.97;7.27;;;;;;;1.35;69.69;99978.72;5067464;28;20243;-64
2022/01/23 14:17:40;;;;;;;6.03;5.70;;;;;;;1.40;68.70;99978.78;5067727;28;20715;-65
2022/01/23 14:20:11;;;;;;;7.40;6.70;;;;;;;1.42;68.99;99972.91;5067214;28;20208;-65
2022/01/23 14:22:40;;;;;;;5.87;5.27;;;;;;;1.33;69.20;99964.34;5066661;28;20768;-64
2022/01/23 14:25:13;;;;;;;5.33;4.60;;;;;;;1.31;69.26;99968.53;5065274;28;20199;-65
2022/01/23 14:27:42;;;;;;;5.27;4.80;;;;;;;1.34;69.63;99976.16;5068423;28;20222;-64
2022/01/23 14:30:13;;;;;;;6.00;5.50;;;;;;;1.34;69.52;99984.59;5066535;28;20595;-65